Thunder radar more information blitzortung!


Radar de pluja more information rain snow radar


Visita la nostra xarxa de llocs de meteo:

Template documentation
and downloads

And another site



No particular awareness of the weather is required.    There are no Weather-warnings

Pagina Historial Weather Underground text

Diari Resum Agost 1, 2017 Unitats:  Imperial    Mètric   Tant
« Previous Dia
SegĂźent Dia »
Diari Setmana Mensual Anual Personalitzada
  Maxima: Minima: Media:
Temperatura: TemperatureC °F 21.9 °F 26.8 °F
Punt de rosada: DewpointC °F 15.9 °F 20.4 °F
Humitat: Humidity % 38 % 69 %
Wind Speed: WindSpeedKMH mph 0.0 mph 4.9 mph
RĂ fegues de vent: WindSpeedGustKMH mph - -
Vent:- - SE
Pression baro: PressurehPa in 1010.0 in -
Precipitacions: 0.0 in    
Historical Graphs
 
 
Dades de taula per Agost 1, 2017
Temps Temperatura Punt de rosada Pression baro Vent Wind Speed RĂ fegues de vent Humitat Rainfall Rate (Hourly)
TemperatureC °F DewpointC °F PressurehPa in Calm     Humidity % HourlyPrecipMM in
11:01 24.6 °F 21.1 °F 1010.0 in ENE 7.4 mph   81 % 0.0 in
11:06 26.8 °F 21.1 °F 1012.8 in NNW 3.7 mph 3.7 mph 71 % 0.0 in
11:11 27.1 °F 20.9 °F 1012.8 in South 5.6 mph 5.6 mph 69 % 0.0 in
11:16 27.4 °F 21.2 °F 1012.8 in SW 5.6 mph 5.6 mph 69 % 0.0 in
11:21 27.3 °F 21.1 °F 1012.8 in SSW 3.7 mph 3.7 mph 69 % 0.0 in
11:26 27.3 °F 21.1 °F 1012.8 in WSW 3.7 mph 3.7 mph 69 % 0.0 in
11:31 27.2 °F 21.0 °F 1012.8 in SW 7.4 mph 7.4 mph 69 % 0.0 in
11:36 27.1 °F 20.9 °F 1013.8 in North 3.2 mph 3.2 mph 69 % 0.0 in
11:41 27.1 °F 20.9 °F 1013.8 in SW 3.7 mph 3.7 mph 69 % 0.0 in
11:46 27.1 °F 20.9 °F 1013.8 in WSW 3.7 mph 3.7 mph 69 % 0.0 in
11:51 27.1 °F 20.9 °F 1013.8 in SW 5.6 mph 5.6 mph 69 % 0.0 in
11:56 27.3 °F 21.1 °F 1013.8 in West 3.7 mph 3.7 mph 69 % 0.0 in
12:01 27.6 °F 21.4 °F 1013.8 in WSW 3.9 mph 3.9 mph 69 % 0.0 in
12:06 27.9 °F 21.4 °F 1013.8 in West 1.9 mph   68 % 0.0 in
12:11 27.9 °F 21.4 °F 1013.8 in West 7.4 mph 7.4 mph 68 % 0.0 in
12:16 27.8 °F 21.1 °F 1013.8 in WSW 3.7 mph 3.7 mph 67 % 0.0 in
12:21 27.9 °F 21.2 °F 1013.8 in WSW 4.2 mph 4.2 mph 67 % 0.0 in
12:26 27.8 °F 21.1 °F 1013.8 in NE 3.7 mph 3.7 mph 67 % 0.0 in
12:27 27.8 °F 21.1 °F 1013.8 in NE 3.7 mph 3.7 mph 67 % 0.0 in
12:32 27.7 °F 21.0 °F 1013.8 in ESE 7.4 mph 7.4 mph 67 % 0.0 in
12:37 27.2 °F 20.8 °F 1013.8 in ESE 5.6 mph 5.6 mph 68 % 0.0 in
12:42 26.9 °F 20.7 °F 1013.8 in ENE 6.1 mph 6.1 mph 69 % 0.0 in
12:47 27.0 °F 21.1 °F 1011.7 in NNE 3.7 mph 3.7 mph 70 % 0.0 in
12:52 27.0 °F 20.8 °F 1011.7 in NNE 9.3 mph 9.3 mph 69 % 0.0 in
12:57 27.0 °F 20.8 °F 1011.7 in North 9.3 mph 9.3 mph 69 % 0.0 in
13:02 27.1 °F 20.9 °F 1011.7 in NNE 7.4 mph 7.4 mph 69 % 0.0 in
13:07 26.9 °F 20.9 °F 1011.7 in ENE 5.6 mph 5.6 mph 70 % 0.0 in
13:12 26.9 °F 20.9 °F 1011.7 in NW 3.7 mph 3.7 mph 70 % 0.0 in
13:17 27.1 °F 21.2 °F 1013.8 in ENE 3.7 mph 3.7 mph 70 % 0.0 in
13:22 27.2 °F 21.3 °F 1013.8 in SW 1.9 mph 1.9 mph 70 % 0.0 in
13:27 27.5 °F 21.3 °F 1013.8 in South 3.9 mph 3.9 mph 69 % 0.0 in
13:32 28.3 °F 21.8 °F 1013.8 in SSE 5.6 mph 5.6 mph 68 % 0.0 in
13:37 28.5 °F 22.0 °F 1013.8 in NNE 6.1 mph 6.1 mph 68 % 0.0 in
13:38 28.4 °F 21.7 °F 1013.8 in ENE 4.7 mph 4.7 mph 67 % 0.0 in
13:42 27.9 °F 21.2 °F 1013.8 in East 5.6 mph 5.6 mph 67 % 0.0 in
13:47 28.1 °F 21.4 °F 1011.7 in ESE 7.4 mph 7.4 mph 67 % 0.0 in
13:52 28.3 °F 21.1 °F 1011.7 in East 7.4 mph 7.4 mph 65 % 0.0 in
13:57 28.6 °F 21.4 °F 1011.7 in ESE 3.7 mph 3.7 mph 65 % 0.0 in
14:02 28.7 °F 21.2 °F 1012.8 in ESE 7.4 mph 7.4 mph 64 % 0.0 in
14:07 28.7 °F 21.2 °F 1012.8 in ESE 9.3 mph 9.3 mph 64 % 0.0 in
14:12 29.2 °F 21.4 °F 1012.8 in NNE 5.6 mph 5.6 mph 63 % 0.0 in
14:17 29.6 °F 21.6 °F 1011.7 in ENE 3.7 mph 3.7 mph 62 % 0.0 in
14:22 30.2 °F 21.6 °F 1011.7 in South 2.3 mph 2.3 mph 60 % 0.0 in
14:27 30.2 °F 21.8 °F 1011.7 in NNE 5.6 mph 5.6 mph 61 % 0.0 in
14:32 30.2 °F 21.6 °F 1011.7 in East 3.9 mph 3.9 mph 60 % 0.0 in
14:37 30.5 °F 21.3 °F 1011.7 in NNE 5.6 mph 5.6 mph 58 % 0.0 in
14:42 31.2 °F 21.7 °F 1011.7 in East 5.6 mph 5.6 mph 57 % 0.0 in
14:47 31.7 °F 21.8 °F 1011.7 in NNE 10.3 mph 10.3 mph 56 % 0.0 in
14:52 32.1 °F 21.9 °F 1011.7 in NE 7.4 mph 7.4 mph 55 % 0.0 in
14:57 32.3 °F 21.5 °F 1011.7 in ENE 13.0 mph 13.0 mph 53 % 0.0 in
15:02 32.3 °F 21.5 °F 1011.7 in NNW 9.0 mph 9.0 mph 53 % 0.0 in
15:07 32.5 °F 20.4 °F 1011.7 in WSW 12.2 mph 12.2 mph 49 % 0.0 in
15:12 32.8 °F 19.7 °F 1011.7 in SSW 7.4 mph 7.4 mph 46 % 0.0 in
15:17 33.0 °F 19.1 °F 1011.7 in SSE 9.3 mph 9.3 mph 44 % 0.0 in
15:22 32.9 °F 18.7 °F 1011.7 in West 7.4 mph 7.4 mph 43 % 0.0 in
15:27 32.7 °F 18.1 °F 1011.7 in West 16.7 mph 16.7 mph 42 % 0.0 in
15:32 32.3 °F 17.8 °F 1011.7 in South 9.3 mph 9.3 mph 42 % 0.0 in
15:37 32.2 °F 18.1 °F 1011.7 in WSW 9.3 mph 9.3 mph 43 % 0.0 in
15:42 32.5 °F 17.2 °F 1011.7 in WSW 18.5 mph 18.5 mph 40 % 0.0 in
15:47 32.5 °F 16.3 °F 1011.7 in WNW 13.0 mph 13.0 mph 38 % 0.0 in
15:52 32.4 °F 16.3 °F 1011.7 in NW 9.3 mph 9.3 mph 38 % 0.0 in
15:57 32.2 °F 16.5 °F 1011.7 in West 11.1 mph 11.1 mph 39 % 0.0 in
16:02 32.0 °F 15.9 °F 1013.8 in WSW 8.7 mph 8.7 mph 38 % 0.0 in
16:07 31.9 °F 16.2 °F 1013.8 in WNW 9.3 mph 9.3 mph 39 % 0.0 in
16:12 31.8 °F 16.1 °F 1013.8 in SW 9.3 mph 9.3 mph 39 % 0.0 in
16:17 31.7 °F 16.1 °F 1012.8 in WSW 8.7 mph 8.7 mph 39 % 0.0 in
16:22 31.6 °F 16.7 °F 1012.8 in WSW 9.3 mph 9.3 mph 41 % 0.0 in
16:27 31.4 °F 16.6 °F 1012.8 in West 9.3 mph 9.3 mph 41 % 0.0 in
16:32 31.7 °F 16.8 °F 1014.8 in SW 9.7 mph 9.7 mph 41 % 0.0 in
16:37 31.8 °F 17.3 °F 1014.8 in SW 7.4 mph 7.4 mph 42 % 0.0 in
16:42 31.7 °F 17.6 °F 1014.8 in West 5.6 mph 5.6 mph 43 % 0.0 in
16:47 31.2 °F 18.2 °F 1014.8 in SW 11.1 mph 11.1 mph 46 % 0.0 in
16:52 30.7 °F 18.8 °F 1014.8 in WSW 11.1 mph 11.1 mph 49 % 0.0 in
16:57 30.2 °F 18.9 °F 1014.8 in NE 7.4 mph 7.4 mph 51 % 0.0 in
17:02 30.0 °F 19.4 °F 1013.8 in West 5.6 mph 5.6 mph 53 % 0.0 in
17:03 30.0 °F 19.4 °F 1013.8 in West 6.4 mph 6.4 mph 53 % 0.0 in
17:08 29.9 °F 19.6 °F 1013.8 in ESE 3.7 mph 3.7 mph 54 % 0.0 in
17:13 29.4 °F 20.3 °F 1013.8 in ESE 7.4 mph 7.4 mph 58 % 0.0 in
17:18 29.0 °F 20.2 °F 1013.8 in NNE 6.9 mph 6.9 mph 59 % 0.0 in
17:23 28.7 °F 20.4 °F 1013.8 in East 7.4 mph 7.4 mph 61 % 0.0 in
17:28 28.2 °F 20.7 °F 1013.8 in ENE 7.4 mph 7.4 mph 64 % 0.0 in
17:33 27.9 °F 20.4 °F 1013.8 in NE 7.4 mph 7.4 mph 64 % 0.0 in
17:38 27.7 °F 20.5 °F 1013.8 in ENE 7.4 mph 7.4 mph 65 % 0.0 in
17:43 27.5 °F 20.6 °F 1013.8 in NE 9.0 mph 9.0 mph 66 % 0.0 in
17:48 27.3 °F 20.6 °F 1013.8 in SE 6.4 mph 6.4 mph 67 % 0.0 in
17:53 27.1 °F 20.7 °F 1013.8 in NNE 7.4 mph 7.4 mph 68 % 0.0 in
17:58 26.9 °F 20.7 °F 1013.8 in NE 3.7 mph 3.7 mph 69 % 0.0 in
18:03 26.8 °F 20.9 °F 1013.8 in ENE 7.4 mph 7.4 mph 70 % 0.0 in
18:08 26.8 °F 21.1 °F 1013.8 in NNE 7.4 mph 7.4 mph 71 % 0.0 in
18:13 26.7 °F 21.0 °F 1013.8 in ENE 5.6 mph 5.6 mph 71 % 0.0 in
18:18 26.7 °F 21.0 °F 1013.8 in East 5.6 mph 5.6 mph 71 % 0.0 in
18:23 26.8 °F 21.1 °F 1013.8 in NNE 9.3 mph 9.3 mph 71 % 0.0 in
18:28 26.8 °F 21.1 °F 1013.8 in East 7.9 mph 7.9 mph 71 % 0.0 in
18:33 26.8 °F 21.1 °F 1012.8 in North 5.8 mph 5.8 mph 71 % 0.0 in
18:38 26.8 °F 21.3 °F 1012.8 in NNE 7.4 mph 7.4 mph 72 % 0.0 in
18:43 26.8 °F 21.8 °F 1012.8 in East 6.1 mph 6.1 mph 74 % 0.0 in
18:48 26.6 °F 21.6 °F 1011.7 in ENE 7.4 mph 7.4 mph 74 % 0.0 in
18:53 26.5 °F 21.5 °F 1011.7 in North 3.7 mph 3.7 mph 74 % 0.0 in
18:58 26.5 °F 21.9 °F 1011.7 in SE 9.3 mph 9.3 mph 76 % 0.0 in
19:03 26.6 °F 22.0 °F 1012.8 in East 5.6 mph 5.6 mph 76 % 0.0 in
19:08 26.5 °F 22.1 °F 1012.8 in ESE 5.6 mph 5.6 mph 77 % 0.0 in
19:13 26.5 °F 22.1 °F 1012.8 in East 5.6 mph 5.6 mph 77 % 0.0 in
19:15 23.8 °F 20.9 °F 1016.8 in SW 1.6 mph 1.6 mph 84 % 0.0 in
19:18 26.4 °F 21.8 °F 1011.7 in ENE 11.1 mph 11.1 mph 76 % 0.0 in
19:23 26.2 °F 21.8 °F 1011.7 in NNE 9.3 mph 9.3 mph 77 % 0.0 in
19:25 23.8 °F 21.1 °F 1016.8 in Calm   1.6 mph 85 % 0.0 in
19:28 26.2 °F 21.8 °F 1011.7 in NNE 7.4 mph 7.4 mph 77 % 0.0 in
19:33 26.3 °F 22.2 °F 1011.7 in ENE 11.1 mph 11.1 mph 78 % 0.0 in
19:35 23.7 °F 21.0 °F 1016.8 in Calm     85 % 0.0 in
19:38 26.3 °F 22.2 °F 1011.7 in NNE 9.3 mph 9.3 mph 78 % 0.0 in
19:43 26.3 °F 22.2 °F 1011.7 in ENE 5.6 mph 5.6 mph 78 % 0.0 in
19:45 23.4 °F 20.7 °F 1016.8 in Calm   1.6 mph 85 % 0.0 in
19:48 26.3 °F 21.9 °F 1011.7 in ESE 8.7 mph 8.7 mph 77 % 0.0 in
19:53 26.3 °F 21.9 °F 1011.7 in ENE 8.7 mph 8.7 mph 77 % 0.0 in
19:55 23.4 °F 20.7 °F 1016.8 in SW 3.2 mph 3.2 mph 85 % 0.0 in
19:58 26.4 °F 22.1 °F 1011.7 in North 5.6 mph 5.6 mph 77 % 0.0 in
20:03 26.4 °F 21.8 °F 1011.7 in ENE 7.4 mph 7.4 mph 76 % 0.0 in
20:05 23.5 °F 21.0 °F 1015.8 in Calm     86 % 0.0 in
20:08 26.4 °F 21.8 °F 1011.7 in North 9.3 mph 9.3 mph 76 % 0.0 in
20:13 26.4 °F 21.8 °F 1011.7 in NNE 6.1 mph 6.1 mph 76 % 0.0 in
20:15 23.4 °F 20.9 °F 1015.8 in Calm     86 % 0.0 in
20:18 26.4 °F 21.8 °F 1011.7 in ENE 5.6 mph 5.6 mph 76 % 0.0 in
20:23 26.4 °F 21.8 °F 1011.7 in NNE 5.6 mph 5.6 mph 76 % 0.0 in
20:25 23.5 °F 21.0 °F 1015.8 in NNW 1.6 mph 3.2 mph 86 % 0.0 in
20:28 26.4 °F 21.8 °F 1011.7 in NE 3.7 mph 3.7 mph 76 % 0.0 in
20:33 26.4 °F 21.8 °F 1012.8 in NE 5.6 mph 5.6 mph 76 % 0.0 in
20:35 23.2 °F 20.7 °F 1015.8 in NNE 1.6 mph 4.8 mph 86 % 0.0 in
20:38 26.4 °F 21.8 °F 1012.8 in NNE 5.6 mph 5.6 mph 76 % 0.0 in
20:43 26.3 °F 21.7 °F 1012.8 in NNE 7.4 mph 7.4 mph 76 % 0.0 in
20:45 23.0 °F 20.6 °F 1015.8 in Calm     86 % 0.0 in
20:48 26.3 °F 21.7 °F 1013.8 in NNE 3.7 mph 3.7 mph 76 % 0.0 in
20:53 26.2 °F 21.6 °F 1013.8 in NNE 3.7 mph 3.7 mph 76 % 0.0 in
20:55 22.8 °F 20.3 °F 1014.8 in Calm   1.6 mph 86 % 0.0 in
20:58 26.2 °F 21.6 °F 1013.8 in Calm     76 % 0.0 in
21:03 26.2 °F 21.6 °F 1013.8 in Calm     76 % 0.0 in
21:05 22.6 °F 19.9 °F 1015.8 in Calm   1.6 mph 85 % 0.0 in
21:08 26.0 °F 21.7 °F 1013.8 in NE 1.9 mph 1.9 mph 77 % 0.0 in
21:13 26.0 °F 21.7 °F 1013.8 in Calm     77 % 0.0 in
21:15 22.7 °F 20.1 °F 1015.8 in Calm     85 % 0.0 in
21:18 26.0 °F 21.7 °F 1013.8 in Calm     77 % 0.0 in
21:23 25.9 °F 21.6 °F 1013.8 in ESE 3.7 mph 3.7 mph 77 % 0.0 in
21:25 22.5 °F 19.8 °F 1015.8 in SSW 1.6 mph 3.2 mph 85 % 0.0 in
21:28 25.9 °F 21.8 °F 1013.8 in East 4.2 mph 4.2 mph 78 % 0.0 in
21:33 25.9 °F 21.8 °F 1013.8 in ESE 4.7 mph 4.7 mph 78 % 0.0 in
21:35 22.6 °F 19.6 °F 1015.8 in NNE 3.2 mph 3.2 mph 83 % 0.0 in
21:38 25.8 °F 21.7 °F 1013.8 in ENE 1.9 mph 1.9 mph 78 % 0.0 in
21:43 25.6 °F 21.5 °F 1013.8 in NE 1.9 mph   78 % 0.0 in
21:45 22.7 °F 19.1 °F 1015.8 in North 3.2 mph 8.0 mph 80 % 0.0 in
21:48 25.6 °F 21.5 °F 1013.8 in ENE 2.3 mph 2.3 mph 78 % 0.0 in
21:53 25.5 °F 21.4 °F 1013.8 in NE 3.7 mph 3.7 mph 78 % 0.0 in
21:55 22.8 °F 18.6 °F 1015.8 in NNE 4.8 mph 9.7 mph 77 % 0.0 in
21:58 25.5 °F 21.4 °F 1013.8 in NNE 2.3 mph 2.3 mph 78 % 0.0 in
22:03 25.4 °F 21.3 °F 1014.8 in SSW 1.9 mph 1.9 mph 78 % 0.0 in
22:05 22.9 °F 18.2 °F 1015.8 in NNE 3.2 mph 11.3 mph 75 % 0.0 in
22:07 25.3 °F 21.2 °F 1014.8 in Calm     78 % 0.0 in
22:08 25.3 °F 21.2 °F 1014.8 in Calm     78 % 0.0 in
22:12 25.3 °F 21.2 °F 1014.8 in Calm     78 % 0.0 in
22:15 23.0 °F 17.9 °F 1015.8 in North 3.2 mph 9.7 mph 73 % 0.0 in
22:17 25.2 °F 21.3 °F 1014.8 in Calm     79 % 0.0 in
22:18 25.2 °F 21.3 °F 1014.8 in Calm     79 % 0.0 in
22:22 25.1 °F 21.2 °F 1014.8 in Calm     79 % 0.0 in
22:25 23.0 °F 17.9 °F 1015.8 in NNW 3.2 mph 8.0 mph 73 % 0.0 in
22:27 25.1 °F 21.2 °F 1014.8 in ENE 1.9 mph 1.9 mph 79 % 0.0 in
22:32 25.0 °F 21.1 °F 1015.8 in Calm     79 % 0.0 in
22:35 22.9 °F 17.6 °F 1015.8 in NNW 3.2 mph 6.4 mph 72 % 0.0 in
22:37 25.0 °F 21.1 °F 1015.8 in NE 3.7 mph 3.7 mph 79 % 0.0 in
22:42 24.9 °F 21.4 °F 1015.8 in NE 3.5 mph 3.5 mph 81 % 0.0 in
22:45 22.5 °F 17.6 °F 1015.8 in Calm   3.2 mph 74 % 0.0 in
22:47 24.8 °F 21.3 °F 1015.8 in NE 5.6 mph 5.6 mph 81 % 0.0 in
22:52 24.7 °F 21.2 °F 1015.8 in NE 4.7 mph 4.7 mph 81 % 0.0 in
22:55 22.4 °F 17.6 °F 1015.8 in Calm   4.8 mph 74 % 0.0 in
22:57 24.6 °F 21.3 °F 1015.8 in NE 1.9 mph 1.9 mph 82 % 0.0 in
23:02 24.5 °F 21.2 °F 1015.8 in NE 3.7 mph 3.7 mph 82 % 0.0 in
23:05 22.2 °F 17.6 °F 1014.8 in Calm   3.2 mph 75 % 0.0 in
23:07 24.5 °F 21.2 °F 1015.8 in East 1.9 mph 1.9 mph 82 % 0.0 in
23:12 24.5 °F 21.2 °F 1015.8 in NNE 3.7 mph 3.7 mph 82 % 0.0 in
23:15 22.1 °F 17.9 °F 1014.8 in Calm   3.2 mph 77 % 0.0 in
23:17 24.4 °F 21.1 °F 1016.8 in North 3.7 mph 3.7 mph 82 % 0.0 in
23:22 24.4 °F 21.1 °F 1016.8 in NW 1.9 mph   82 % 0.0 in
23:25 22.1 °F 18.3 °F 1015.8 in Calm     79 % 0.0 in
23:27 24.3 °F 21.2 °F 1016.8 in NW 1.9 mph   83 % 0.0 in
23:32 24.2 °F 21.1 °F 1016.8 in SW 2.6 mph 2.6 mph 83 % 0.0 in
23:35 22.1 °F 18.7 °F 1015.8 in Calm     81 % 0.0 in
23:37 24.0 °F 20.9 °F 1016.8 in SW 1.9 mph 1.9 mph 83 % 0.0 in
23:42 24.0 °F 20.9 °F 1016.8 in Calm     83 % 0.0 in
23:45 22.0 °F 18.8 °F 1015.8 in Calm   3.2 mph 82 % 0.0 in
23:47 24.1 °F 21.1 °F 1016.8 in Calm     83 % 0.0 in
23:52 24.0 °F 21.1 °F 1016.8 in Calm     84 % 0.0 in
23:55 21.9 °F 18.7 °F 1015.8 in Calm   1.6 mph 82 % 0.0 in
23:57 24.0 °F 21.1 °F 1016.8 in Calm     84 % 0.0 in
Meteo Sesrovires
Elogis d' Weather Underground - 1.5 mb

Guio original per  Jim McMurry - jmcmurry@mwt.net Adaptat per a la plantilla per  Wim van der Kuil - Leuven-Template.eu

Trobareu la nostra informacio del temps tambe a:

Weather Underground

AWEKAS